Time;durP1;ratioP1;P1;durP2;ratioP2;P2;SDS_P1;SDS_P2;PMS_P1;PMS_P2;Temp;Humidity;BMP_temperature;BMP_pressure;BME280_temperature;BME280_humidity;BME280_pressure;Samples;Min_cycle;Max_cycle;Signal;HPM_P1;HPM_P2
2024/03/11 00:01:01;;;;;;;2.13;2.03;;;8.60;99.90;;;;;;4975935;28;20533;-74
2024/03/11 00:03:27;;;;;;;3.37;2.30;;;8.60;99.90;;;;;;4981434;28;20966;-73
2024/03/11 00:05:53;;;;;;;2.37;2.17;;;8.60;99.90;;;;;;4983053;28;20476;-73
2024/03/11 00:08:21;;;;;;;2.20;2.00;;;8.50;99.90;;;;;;4978477;28;20222;-73
2024/03/11 00:10:48;;;;;;;2.47;2.03;;;8.50;99.90;;;;;;4979975;28;20978;-72
2024/03/11 00:13:17;;;;;;;1.80;1.70;;;8.40;99.90;;;;;;4981097;28;20464;-72
2024/03/11 00:15:46;;;;;;;2.23;2.00;;;8.50;99.90;;;;;;4974072;28;20504;-73
2024/03/11 00:18:12;;;;;;;2.13;1.93;;;8.50;99.90;;;;;;4993961;28;20473;-74
2024/03/11 00:20:38;;;;;;;1.97;1.67;;;8.40;99.90;;;;;;4980969;28;20476;-72
2024/03/11 00:23:04;;;;;;;1.60;1.50;;;8.40;99.90;;;;;;4964287;28;20469;-73
2024/03/11 00:25:30;;;;;;;1.90;1.60;;;8.50;99.90;;;;;;4978116;28;20224;-73
2024/03/11 00:27:57;;;;;;;1.60;1.50;;;8.50;99.90;;;;;;4973138;28;20300;-74
2024/03/11 00:30:23;;;;;;;1.63;1.20;;;8.50;99.90;;;;;;4980312;28;20527;-72
2024/03/11 00:32:52;;;;;;;1.60;1.47;;;8.50;99.90;;;;;;4977073;28;20469;-73
2024/03/11 00:35:18;;;;;;;1.63;1.53;;;8.40;99.90;;;;;;4973728;28;20224;-73
2024/03/11 00:37:48;;;;;;;0.97;0.97;;;8.50;99.90;;;;;;4978169;28;20515;-73
2024/03/11 00:40:13;;;;;;;1.10;1.00;;;8.50;99.90;;;;;;4972101;28;20492;-73
2024/03/11 00:42:39;;;;;;;0.90;0.90;;;8.40;99.90;;;;;;4979095;28;20515;-74
2024/03/11 00:45:12;;;;;;;1.20;1.07;;;8.30;99.90;;;;;;4978476;28;20232;-74
2024/03/11 00:47:41;;;;;;;0.80;0.70;;;8.40;99.90;;;;;;4978946;28;20222;-73
2024/03/11 00:50:12;;;;;;;1.17;1.07;;;8.40;99.90;;;;;;4974014;28;20466;-73
2024/03/11 00:52:39;;;;;;;1.10;1.00;;;8.40;99.90;;;;;;4993237;28;20465;-75
2024/03/11 00:55:09;;;;;;;0.83;0.80;;;8.50;99.90;;;;;;4975737;28;20528;-74
2024/03/11 00:57:38;;;;;;;0.93;0.90;;;8.50;99.90;;;;;;4973953;28;20488;-75
2024/03/11 01:00:05;;;;;;;1.13;1.03;;;8.40;99.90;;;;;;4975496;28;20548;-74
2024/03/11 01:02:33;;;;;;;1.30;1.20;;;8.40;99.90;;;;;;4980974;28;20518;-74
2024/03/11 01:04:59;;;;;;;1.70;1.33;;;8.40;99.90;;;;;;4979473;28;20453;-74
2024/03/11 01:07:26;;;;;;;2.13;1.57;;;8.40;99.90;;;;;;4977629;28;20520;-73
2024/03/11 01:09:52;;;;;;;1.30;0.83;;;8.40;99.90;;;;;;4981356;28;20481;-74
2024/03/11 01:12:19;;;;;;;2.20;1.03;;;8.60;99.90;;;;;;4977631;28;20524;-75
2024/03/11 01:14:44;;;;;;;2.50;1.50;;;8.60;99.90;;;;;;4967213;28;20528;-74
2024/03/11 01:17:10;;;;;;;1.33;1.03;;;8.70;99.90;;;;;;4971808;28;20489;-74
2024/03/11 01:19:35;;;;;;;1.00;0.97;;;8.70;99.90;;;;;;4975610;28;20218;-73
2024/03/11 01:22:02;;;;;;;1.33;0.93;;;8.80;99.90;;;;;;4977502;28;20257;-74
2024/03/11 01:24:28;;;;;;;1.97;1.00;;;8.80;99.90;;;;;;4979889;28;20226;-72
2024/03/11 01:26:57;;;;;;;2.27;1.30;;;8.90;99.90;;;;;;4980707;28;20455;-72
2024/03/11 01:29:26;;;;;;;2.63;1.50;;;8.80;99.90;;;;;;4941738;28;20353;-72
2024/03/11 01:31:52;;;;;;;1.50;1.40;;;8.80;99.90;;;;;;4978383;28;20461;-74
2024/03/11 01:34:22;;;;;;;1.20;1.20;;;8.70;99.90;;;;;;4971940;28;20468;-72
2024/03/11 01:36:49;;;;;;;1.20;0.97;;;8.80;99.90;;;;;;4974861;28;20974;-73
2024/03/11 01:39:25;;;;;;;1.63;1.50;;;8.80;99.90;;;;;;4976446;28;20457;-73
2024/03/11 01:41:52;;;;;;;1.30;1.17;;;8.70;99.90;;;;;;4977946;28;20476;-74
2024/03/11 01:44:19;;;;;;;1.37;0.93;;;8.80;99.90;;;;;;4976749;28;20544;-73
2024/03/11 01:46:46;;;;;;;0.70;0.70;;;8.70;99.90;;;;;;4980160;28;20453;-74
2024/03/11 01:49:12;;;;;;;1.03;1.00;;;8.60;99.90;;;;;;4978824;28;20511;-74
2024/03/11 01:51:38;;;;;;;1.27;1.13;;;8.60;99.90;;;;;;4983506;28;20471;-73
2024/03/11 01:54:04;;;;;;;1.17;0.80;;;8.50;99.90;;;;;;4975287;28;20472;-74
2024/03/11 01:56:31;;;;;;;1.50;0.87;;;8.50;99.90;;;;;;4977867;28;20297;-73
2024/03/11 01:59:01;;;;;;;0.90;0.90;;;8.50;99.90;;;;;;4993587;28;20450;-73
2024/03/11 02:01:26;;;;;;;1.60;1.20;;;8.40;99.90;;;;;;4979026;28;20885;-71
2024/03/11 02:03:52;;;;;;;0.73;0.63;;;8.20;99.90;;;;;;4984541;28;20492;-74
2024/03/11 02:06:18;;;;;;;0.70;0.63;;;8.30;99.90;;;;;;4962862;28;20218;-73
2024/03/11 02:08:43;;;;;;;0.97;0.73;;;8.30;99.90;;;;;;4976857;28;20217;-74
2024/03/11 02:11:10;;;;;;;1.50;0.67;;;8.30;99.90;;;;;;4975889;28;20250;-74
2024/03/11 02:13:36;;;;;;;0.50;0.50;;;8.40;99.90;;;;;;4976338;28;20218;-74
2024/03/11 02:16:02;;;;;;;0.60;0.60;;;8.40;99.90;;;;;;4978253;28;20524;-74
2024/03/11 02:18:28;;;;;;;0.80;0.70;;;8.40;99.90;;;;;;4976971;28;20316;-72
2024/03/11 02:20:54;;;;;;;0.80;0.80;;;8.40;99.90;;;;;;4973472;28;20552;-74
2024/03/11 02:23:20;;;;;;;1.07;0.80;;;8.40;99.90;;;;;;4971726;28;20972;-74
2024/03/11 02:25:46;;;;;;;0.90;0.90;;;8.50;99.90;;;;;;4974184;28;20222;-74
2024/03/11 02:28:12;;;;;;;1.37;0.80;;;8.50;99.90;;;;;;4970840;28;21091;-73
2024/03/11 02:30:38;;;;;;;0.60;0.50;;;8.50;99.90;;;;;;4974655;28;20466;-74
2024/03/11 02:33:05;;;;;;;0.80;0.70;;;8.50;99.90;;;;;;4973978;28;20715;-74
2024/03/11 02:35:31;;;;;;;3.43;1.00;;;8.40;99.90;;;;;;4975996;28;20288;-73
2024/03/11 02:37:57;;;;;;;1.10;1.00;;;8.30;99.90;;;;;;4975298;28;20473;-74
2024/03/11 02:40:26;;;;;;;0.60;0.57;;;8.20;99.90;;;;;;4975931;28;20228;-71
2024/03/11 02:42:53;;;;;;;1.23;1.13;;;8.10;99.90;;;;;;4957812;28;20325;-74
2024/03/11 02:45:19;;;;;;;1.43;1.07;;;8.00;99.90;;;;;;4969751;28;20465;-74
2024/03/11 02:47:46;;;;;;;1.20;1.10;;;8.10;99.90;;;;;;4979910;28;20460;-73
2024/03/11 02:50:13;;;;;;;2.20;1.47;;;8.20;99.90;;;;;;4968432;28;20479;-74
2024/03/11 02:52:39;;;;;;;0.90;0.90;;;8.30;99.90;;;;;;4962313;28;20453;-74
2024/03/11 02:55:05;;;;;;;0.77;0.77;;;8.40;99.90;;;;;;4977347;28;20473;-74
2024/03/11 02:57:32;;;;;;;1.10;1.10;;;8.40;99.90;;;;;;4977603;28;20237;-73
2024/03/11 02:59:58;;;;;;;0.80;0.80;;;8.30;99.90;;;;;;4978301;28;20458;-74
2024/03/11 03:02:24;;;;;;;1.43;1.00;;;8.30;99.90;;;;;;4976792;28;20461;-73
2024/03/11 03:04:50;;;;;;;1.30;1.20;;;8.30;99.90;;;;;;4979166;28;21060;-74
2024/03/11 03:07:17;;;;;;;2.43;1.70;;;8.30;99.90;;;;;;4956299;28;20229;-74
2024/03/11 03:09:42;;;;;;;1.40;1.30;;;8.40;99.90;;;;;;4964025;28;20622;-73
2024/03/11 03:12:09;;;;;;;1.23;1.13;;;8.50;99.90;;;;;;4971902;28;20470;-74
2024/03/11 03:14:40;;;;;;;1.20;1.10;;;8.60;99.90;;;;;;4957962;28;21014;-75
2024/03/11 03:17:07;;;;;;;1.03;0.93;;;8.70;99.90;;;;;;4973815;28;20492;-74
2024/03/11 03:19:33;;;;;;;0.97;0.87;;;8.70;99.90;;;;;;4976140;28;20507;-73
2024/03/11 03:21:58;;;;;;;2.57;0.90;;;8.80;99.90;;;;;;4969448;28;20488;-74
2024/03/11 03:24:24;;;;;;;1.47;0.90;;;8.80;99.90;;;;;;4976362;28;20458;-74
2024/03/11 03:26:50;;;;;;;1.93;1.20;;;8.80;99.90;;;;;;4971068;28;20320;-74
2024/03/11 03:29:16;;;;;;;1.23;0.97;;;8.80;99.90;;;;;;4971500;28;20249;-74
2024/03/11 03:31:42;;;;;;;1.13;1.03;;;8.90;99.90;;;;;;4976504;28;20244;-73
2024/03/11 03:34:10;;;;;;;1.67;1.27;;;8.90;99.90;;;;;;4973332;28;20503;-73
2024/03/11 03:36:38;;;;;;;1.23;1.10;;;8.80;99.90;;;;;;4994516;28;20705;-74
2024/03/11 03:39:04;;;;;;;1.50;1.27;;;8.80;99.90;;;;;;4970457;28;20462;-75
2024/03/11 03:41:29;;;;;;;1.40;1.30;;;8.80;99.90;;;;;;4978102;28;20472;-74
2024/03/11 03:43:55;;;;;;;3.40;1.37;;;8.70;99.90;;;;;;4979005;28;20457;-74
2024/03/11 03:46:22;;;;;;;3.43;1.63;;;8.50;99.90;;;;;;4973704;28;20291;-74
2024/03/11 03:48:48;;;;;;;1.33;1.13;;;8.50;99.90;;;;;;4954903;28;20240;-75
2024/03/11 03:51:16;;;;;;;2.10;1.87;;;8.70;99.90;;;;;;4976908;28;20453;-73
2024/03/11 03:53:41;;;;;;;1.50;1.40;;;8.70;99.90;;;;;;4973031;28;20501;-73
2024/03/11 03:56:08;;;;;;;2.50;2.00;;;8.60;99.90;;;;;;4967856;28;20496;-74
2024/03/11 03:58:36;;;;;;;2.07;1.87;;;8.60;99.90;;;;;;4977046;28;20265;-73
2024/03/11 04:01:03;;;;;;;1.70;1.53;;;8.50;99.90;;;;;;4987326;28;20893;-75
2024/03/11 04:03:28;;;;;;;2.70;2.30;;;8.60;99.90;;;;;;4976568;28;20469;-74
2024/03/11 04:05:54;;;;;;;2.43;1.70;;;8.50;99.90;;;;;;4979041;28;20449;-74
2024/03/11 04:08:20;;;;;;;3.37;2.40;;;8.50;99.90;;;;;;4975735;28;20276;-72
2024/03/11 04:10:47;;;;;;;2.73;2.53;;;8.60;99.90;;;;;;4975271;28;20535;-74
2024/03/11 04:13:13;;;;;;;2.23;2.03;;;8.60;99.90;;;;;;4974281;28;20471;-74
2024/03/11 04:15:42;;;;;;;3.17;2.40;;;8.50;99.90;;;;;;4976134;28;20516;-74
2024/03/11 04:18:10;;;;;;;4.70;1.93;;;8.50;99.90;;;;;;4973596;28;20889;-74
2024/03/11 04:20:37;;;;;;;2.63;2.07;;;8.50;99.90;;;;;;4977354;28;20476;-74
2024/03/11 04:23:07;;;;;;;1.77;1.43;;;8.70;99.90;;;;;;4954773;28;20465;-74
2024/03/11 04:25:37;;;;;;;3.30;2.80;;;8.60;99.90;;;;;;4979349;28;20595;-72
2024/03/11 04:28:04;;;;;;;3.13;2.20;;;8.50;99.90;;;;;;4977145;28;21000;-74
2024/03/11 04:30:32;;;;;;;3.53;2.87;;;8.50;99.90;;;;;;4981028;28;20471;-73
2024/03/11 04:32:58;;;;;;;3.07;2.60;;;8.60;99.90;;;;;;4981532;28;20469;-74
2024/03/11 04:35:26;;;;;;;4.03;2.87;;;8.60;99.90;;;;;;4979250;28;20568;-74
2024/03/11 04:37:58;;;;;;;3.97;2.87;;;8.60;99.90;;;;;;4982030;28;20488;-74
2024/03/11 04:40:28;;;;;;;4.70;3.07;;;8.60;99.90;;;;;;4977067;28;20524;-73
2024/03/11 04:42:55;;;;;;;3.63;3.23;;;8.70;99.90;;;;;;4976506;28;20480;-74
2024/03/11 04:45:22;;;;;;;5.50;3.57;;;8.70;99.90;;;;;;4978363;28;20990;-74
2024/03/11 04:47:48;;;;;;;4.37;3.37;;;8.70;99.90;;;;;;4981160;28;20469;-74
2024/03/11 04:50:20;;;;;;;4.57;3.33;;;8.70;99.90;;;;;;4974883;28;20469;-73
2024/03/11 04:52:46;;;;;;;5.67;3.23;;;8.80;99.90;;;;;;4974550;28;20460;-74
2024/03/11 04:55:13;;;;;;;6.70;3.53;;;8.80;99.90;;;;;;4961243;28;20469;-73
2024/03/11 04:57:39;;;;;;;7.23;3.70;;;8.80;99.90;;;;;;4989850;28;20476;-74
2024/03/11 05:00:05;;;;;;;10.33;4.50;;;8.90;99.90;;;;;;4995417;28;20548;-74
2024/03/11 05:02:35;;;;;;;8.00;4.80;;;8.80;99.90;;;;;;4981899;28;20226;-73
2024/03/11 05:05:03;;;;;;;5.63;3.93;;;8.80;99.90;;;;;;4977772;28;20905;-74
2024/03/11 05:07:28;;;;;;;5.83;4.20;;;8.80;99.90;;;;;;4985491;28;20489;-73
2024/03/11 05:09:54;;;;;;;6.97;4.57;;;8.80;99.90;;;;;;4978863;28;20515;-74
2024/03/11 05:12:20;;;;;;;8.03;4.73;;;8.80;99.90;;;;;;4973804;28;20224;-74
2024/03/11 05:14:45;;;;;;;8.20;4.90;;;8.90;99.90;;;;;;4977041;28;20230;-74
2024/03/11 05:17:12;;;;;;;7.20;4.63;;;8.90;99.90;;;;;;4968330;28;20222;-74
2024/03/11 05:19:38;;;;;;;8.50;4.97;;;8.90;99.90;;;;;;4977505;28;20219;-73
2024/03/11 05:22:04;;;;;;;10.73;6.37;;;8.80;99.90;;;;;;4974286;28;20862;-73
2024/03/11 05:24:30;;;;;;;11.10;5.87;;;8.60;99.90;;;;;;4977948;28;20216;-74
2024/03/11 05:26:55;;;;;;;12.30;6.47;;;8.60;99.90;;;;;;4980924;28;20233;-74
2024/03/11 05:29:21;;;;;;;11.43;7.23;;;8.60;99.90;;;;;;4972217;28;20297;-74
2024/03/11 05:31:47;;;;;;;9.77;6.00;;;8.60;99.90;;;;;;4974295;28;20214;-73
2024/03/11 05:34:14;;;;;;;19.30;6.87;;;8.60;99.90;;;;;;4974758;28;20233;-74
2024/03/11 05:36:40;;;;;;;11.50;6.30;;;8.70;99.90;;;;;;4979992;28;20230;-74
2024/03/11 05:39:08;;;;;;;14.90;6.87;;;8.70;99.90;;;;;;4979923;28;20523;-75
2024/03/11 05:41:35;;;;;;;12.50;7.30;;;8.60;99.90;;;;;;4969068;28;20499;-75
2024/03/11 05:44:03;;;;;;;12.60;6.80;;;8.60;99.90;;;;;;4962891;28;20549;-74
2024/03/11 05:46:29;;;;;;;14.47;8.60;;;8.50;99.90;;;;;;4976475;28;20517;-74
2024/03/11 05:48:55;;;;;;;11.77;7.17;;;8.50;99.90;;;;;;4981658;28;20458;-74
2024/03/11 05:51:21;;;;;;;12.03;6.63;;;8.50;99.90;;;;;;4977091;28;20229;-74
2024/03/11 05:53:52;;;;;;;14.10;7.70;;;8.50;99.90;;;;;;4965776;28;20464;-74
2024/03/11 05:56:22;;;;;;;11.60;7.10;;;8.50;99.90;;;;;;4975787;28;20272;-74
2024/03/11 05:58:49;;;;;;;14.77;8.97;;;8.40;99.90;;;;;;4980403;28;20993;-74
2024/03/11 06:01:14;;;;;;;13.10;7.33;;;8.40;99.90;;;;;;4971577;28;20466;-73
2024/03/11 06:03:40;;;;;;;12.97;8.00;;;8.50;99.90;;;;;;4977485;28;21003;-74
2024/03/11 06:06:06;;;;;;;14.07;7.67;;;8.50;99.90;;;;;;4977759;28;20218;-74
2024/03/11 06:08:32;;;;;;;13.13;7.30;;;8.50;99.90;;;;;;4988866;28;20559;-73
2024/03/11 06:10:58;;;;;;;16.47;8.20;;;8.50;99.90;;;;;;4990611;28;20280;-73
2024/03/11 06:13:23;;;;;;;16.90;8.90;;;8.50;99.90;;;;;;4974061;28;20229;-74
2024/03/11 06:15:49;;;;;;;14.27;7.67;;;8.40;99.90;;;;;;4982009;28;20222;-74
2024/03/11 06:18:15;;;;;;;14.77;8.17;;;8.40;99.90;;;;;;4981389;28;20268;-74
2024/03/11 06:20:42;;;;;;;15.77;8.63;;;8.50;99.90;;;;;;4993247;28;20287;-74
2024/03/11 06:23:07;;;;;;;13.40;8.27;;;8.50;99.90;;;;;;4953426;28;20215;-73
2024/03/11 06:25:33;;;;;;;11.27;6.70;;;8.60;99.90;;;;;;4963724;28;20460;-74
2024/03/11 06:27:59;;;;;;;15.17;8.77;;;8.60;99.90;;;;;;4980946;28;20731;-74
2024/03/11 06:30:25;;;;;;;13.93;8.57;;;8.60;99.90;;;;;;4979188;28;20231;-72
2024/03/11 06:32:51;;;;;;;13.23;7.40;;;8.60;99.90;;;;;;4998241;28;20456;-75
2024/03/11 06:35:17;;;;;;;15.53;8.80;;;8.70;99.90;;;;;;4972805;28;20233;-73
2024/03/11 06:37:43;;;;;;;16.43;8.30;;;8.70;99.90;;;;;;4964352;28;20225;-72
2024/03/11 06:40:12;;;;;;;12.97;7.90;;;8.60;99.90;;;;;;4974515;28;20221;-74
2024/03/11 06:42:38;;;;;;;14.40;8.80;;;8.60;99.90;;;;;;4974187;28;20470;-74
2024/03/11 06:45:05;;;;;;;14.90;9.60;;;8.60;99.90;;;;;;4973312;28;20847;-74
2024/03/11 06:47:31;;;;;;;21.10;11.37;;;8.50;99.90;;;;;;4976586;28;20234;-74
2024/03/11 06:49:56;;;;;;;16.70;9.20;;;8.50;99.90;;;;;;4976819;28;20457;-74
2024/03/11 06:52:23;;;;;;;18.47;9.90;;;8.40;99.90;;;;;;4974196;28;20225;-74
2024/03/11 06:54:49;;;;;;;15.30;8.90;;;8.50;99.90;;;;;;4976792;28;20233;-74
2024/03/11 06:57:16;;;;;;;18.30;9.23;;;8.40;99.90;;;;;;4973438;28;20472;-74
2024/03/11 06:59:45;;;;;;;15.40;8.97;;;8.40;99.90;;;;;;4980668;28;20460;-73
2024/03/11 07:02:11;;;;;;;16.87;9.10;;;8.40;99.90;;;;;;4963636;28;20459;-74
2024/03/11 07:04:38;;;;;;;13.37;7.67;;;8.40;99.90;;;;;;4976148;28;20460;-73
2024/03/11 07:07:06;;;;;;;15.03;9.37;;;8.40;99.90;;;;;;4973022;28;20568;-73
2024/03/11 07:09:34;;;;;;;15.57;8.00;;;8.50;99.90;;;;;;4981005;28;20450;-74
2024/03/11 07:12:00;;;;;;;14.70;7.77;;;8.40;99.90;;;;;;4979164;28;20469;-75
2024/03/11 07:14:25;;;;;;;13.57;7.30;;;8.40;99.90;;;;;;4968395;28;20471;-74
2024/03/11 07:16:53;;;;;;;13.23;7.43;;;8.40;99.90;;;;;;4978653;28;20478;-74
2024/03/11 07:19:20;;;;;;;13.07;7.70;;;8.40;99.90;;;;;;4977593;28;20222;-74
2024/03/11 07:21:46;;;;;;;19.50;9.30;;;8.50;99.90;;;;;;4979101;28;21014;-74
2024/03/11 07:24:12;;;;;;;16.13;9.47;;;8.40;99.90;;;;;;4976555;28;20545;-74
2024/03/11 07:26:38;;;;;;;15.00;8.20;;;8.30;99.90;;;;;;4982156;28;20210;-74
2024/03/11 07:29:06;;;;;;;13.50;8.20;;;8.40;99.90;;;;;;4978450;28;20230;-74
2024/03/11 07:31:31;;;;;;;9.97;6.73;;;8.40;99.90;;;;;;4967486;28;20456;-74
2024/03/11 07:33:57;;;;;;;10.53;7.47;;;8.40;99.90;;;;;;4976489;28;20519;-74
2024/03/11 07:36:24;;;;;;;11.73;8.37;;;8.40;99.90;;;;;;4982674;28;20205;-73
2024/03/11 07:38:50;;;;;;;16.93;7.63;;;8.40;99.90;;;;;;4981085;28;20487;-74
2024/03/11 07:41:16;;;;;;;10.93;6.67;;;8.40;99.90;;;;;;4960897;28;20477;-74
2024/03/11 07:43:41;;;;;;;12.40;7.23;;;8.40;99.90;;;;;;4977184;28;20221;-72
2024/03/11 07:46:08;;;;;;;12.80;7.27;;;8.40;99.90;;;;;;4975211;28;20820;-74
2024/03/11 07:48:34;;;;;;;14.57;8.10;;;8.40;99.90;;;;;;4977246;28;20226;-74
2024/03/11 07:51:00;;;;;;;14.10;7.40;;;8.40;99.90;;;;;;4976838;28;20462;-75
2024/03/11 07:53:25;;;;;;;13.20;7.87;;;8.50;99.90;;;;;;4978928;28;20308;-74
2024/03/11 07:55:51;;;;;;;13.23;6.80;;;8.50;99.90;;;;;;4981354;28;20209;-73
2024/03/11 07:58:16;;;;;;;13.53;8.23;;;8.50;99.90;;;;;;4970152;28;20235;-74
2024/03/11 08:00:42;;;;;;;13.47;7.97;;;8.50;99.90;;;;;;4983916;28;20280;-73
2024/03/11 08:03:09;;;;;;;16.70;8.10;;;8.50;99.90;;;;;;4983375;28;20221;-74
2024/03/11 08:05:36;;;;;;;15.57;8.80;;;8.50;99.90;;;;;;4983913;28;20217;-74
2024/03/11 08:08:03;;;;;;;16.50;8.87;;;8.50;99.90;;;;;;4979140;28;20473;-74
2024/03/11 08:10:29;;;;;;;12.87;7.17;;;8.60;99.90;;;;;;4983672;28;20465;-74
2024/03/11 08:12:56;;;;;;;12.20;7.20;;;8.70;99.90;;;;;;4967102;28;20477;-74
2024/03/11 08:15:22;;;;;;;14.13;7.90;;;8.70;99.90;;;;;;4980999;28;20473;-73
2024/03/11 08:17:49;;;;;;;12.70;8.23;;;8.80;99.90;;;;;;4982206;28;20469;-74
2024/03/11 08:20:17;;;;;;;13.90;8.20;;;8.80;99.90;;;;;;4983068;28;20272;-74
2024/03/11 08:22:48;;;;;;;15.10;7.50;;;8.70;99.90;;;;;;4976835;28;20528;-72
2024/03/11 08:25:22;;;;;;;9.87;6.77;;;8.80;99.90;;;;;;4978345;28;20527;-75
2024/03/11 08:27:54;;;;;;;12.60;7.67;;;8.80;99.90;;;;;;4977773;28;20484;-74
2024/03/11 08:30:22;;;;;;;11.97;6.80;;;8.90;99.90;;;;;;4976824;28;20557;-74
2024/03/11 08:32:49;;;;;;;11.60;7.10;;;9.00;99.90;;;;;;4978517;28;20476;-74
2024/03/11 08:35:21;;;;;;;12.57;7.00;;;9.00;99.90;;;;;;4981835;28;20465;-74
2024/03/11 08:37:47;;;;;;;13.00;7.43;;;9.00;99.90;;;;;;4982971;28;20492;-74
2024/03/11 08:40:16;;;;;;;10.77;7.37;;;9.00;99.90;;;;;;4958657;28;20472;-74
2024/03/11 08:42:44;;;;;;;12.50;7.27;;;9.10;99.90;;;;;;4982435;28;20559;-75
2024/03/11 08:45:11;;;;;;;14.87;7.80;;;9.10;99.90;;;;;;4977637;28;20480;-74
2024/03/11 08:47:39;;;;;;;10.17;6.97;;;9.10;99.90;;;;;;4980608;28;20469;-74
2024/03/11 08:50:08;;;;;;;10.03;6.77;;;9.10;99.90;;;;;;4978199;28;20463;-75
2024/03/11 08:52:36;;;;;;;15.50;10.00;;;9.20;99.90;;;;;;4985349;28;20514;-74
2024/03/11 08:55:05;;;;;;;13.83;8.03;;;9.20;99.90;;;;;;4976546;28;20505;-74
2024/03/11 08:57:34;;;;;;;11.50;7.90;;;9.20;99.90;;;;;;4984850;28;20535;-74
2024/03/11 09:00:07;;;;;;;14.20;9.27;;;9.20;99.90;;;;;;4976056;28;20482;-74
2024/03/11 09:02:33;;;;;;;17.90;9.37;;;9.20;99.90;;;;;;4974556;28;20849;-74
2024/03/11 09:04:59;;;;;;;14.37;8.50;;;9.30;99.90;;;;;;4975453;28;20475;-74
2024/03/11 09:07:26;;;;;;;12.47;9.27;;;9.30;99.90;;;;;;4974684;28;20229;-73
2024/03/11 09:09:52;;;;;;;14.87;9.60;;;9.30;99.90;;;;;;4980624;28;20237;-74
2024/03/11 09:12:20;;;;;;;12.30;9.27;;;9.40;99.90;;;;;;4976450;28;20461;-73
2024/03/11 09:14:47;;;;;;;15.47;8.37;;;9.40;99.90;;;;;;4970042;28;20472;-74
2024/03/11 09:17:12;;;;;;;15.77;8.60;;;9.40;99.90;;;;;;4979775;28;20477;-74
2024/03/11 09:19:41;;;;;;;13.37;8.17;;;9.40;99.90;;;;;;4980303;28;20263;-74
2024/03/11 09:22:07;;;;;;;15.27;8.20;;;9.40;99.90;;;;;;4975901;28;20249;-74
2024/03/11 09:24:33;;;;;;;16.80;9.47;;;9.40;99.90;;;;;;4980011;28;20566;-74
2024/03/11 09:27:02;;;;;;;12.30;8.37;;;9.50;99.90;;;;;;4977489;28;20252;-75
2024/03/11 09:29:29;;;;;;;14.37;8.40;;;9.50;99.90;;;;;;4977247;28;20472;-74
2024/03/11 09:31:55;;;;;;;13.03;7.93;;;9.50;99.90;;;;;;4983015;28;20461;-74
2024/03/11 09:34:20;;;;;;;14.67;8.60;;;9.50;99.90;;;;;;4963219;28;21217;-74
2024/03/11 09:36:46;;;;;;;12.13;8.00;;;9.50;99.90;;;;;;4979383;28;20241;-72
2024/03/11 09:39:13;;;;;;;12.53;7.23;;;9.50;99.90;;;;;;4982172;28;20218;-74
2024/03/11 09:41:48;;;;;;;10.43;7.87;;;9.60;99.90;;;;;;4978533;28;20692;-74
2024/03/11 09:44:24;;;;;;;15.10;7.40;;;9.50;99.90;;;;;;4974670;28;20471;-74
2024/03/11 09:46:51;;;;;;;11.03;7.37;;;9.60;99.90;;;;;;4978238;28;20527;-73
2024/03/11 09:49:23;;;;;;;12.17;8.03;;;9.60;99.90;;;;;;4976288;28;20834;-74
2024/03/11 09:51:50;;;;;;;14.20;8.30;;;9.60;99.90;;;;;;4981093;28;20469;-74
2024/03/11 09:54:17;;;;;;;15.57;8.40;;;9.60;99.90;;;;;;4975745;28;20453;-74
2024/03/11 09:56:48;;;;;;;10.53;6.77;;;9.60;99.90;;;;;;4962038;28;20458;-74
2024/03/11 09:59:18;;;;;;;13.40;7.50;;;9.60;99.90;;;;;;4977769;28;20496;-74
2024/03/11 10:01:54;;;;;;;9.43;7.00;;;9.70;99.90;;;;;;4980630;28;20461;-72
2024/03/11 10:04:26;;;;;;;11.47;7.23;;;9.70;99.90;;;;;;4978247;28;20452;-74
2024/03/11 10:06:59;;;;;;;10.60;6.67;;;9.80;99.90;;;;;;4981910;28;20464;-74
2024/03/11 10:09:31;;;;;;;11.00;7.30;;;9.80;99.90;;;;;;4993404;28;20471;-72
2024/03/11 10:12:07;;;;;;;12.10;7.20;;;9.80;99.90;;;;;;4979348;28;20538;-73
2024/03/11 10:14:34;;;;;;;10.63;7.43;;;9.90;99.90;;;;;;4982429;28;20444;-74
2024/03/11 10:17:24;;;;;;;13.53;7.33;;;9.90;99.90;;;;;;4976159;28;20482;-74
2024/03/11 10:19:56;;;;;;;10.47;6.60;;;10.00;99.90;;;;;;4976192;28;20463;-73
2024/03/11 10:22:34;;;;;;;12.80;7.17;;;10.00;99.90;;;;;;4974889;28;20910;-74
2024/03/11 10:25:02;;;;;;;11.90;8.17;;;10.10;99.90;;;;;;4976303;28;20552;-74
2024/03/11 10:27:39;;;;;;;16.00;8.37;;;10.10;99.90;;;;;;4980824;28;20966;-75
2024/03/11 10:30:25;;;;;;;15.30;8.83;;;10.10;99.90;;;;;;4974867;28;20460;-74
2024/03/11 10:32:56;;;;;;;11.83;8.43;;;10.20;99.90;;;;;;4972626;28;20457;-74
2024/03/11 10:35:23;;;;;;;14.30;9.07;;;10.20;99.90;;;;;;4974850;28;20460;-74
2024/03/11 10:37:52;;;;;;;12.00;8.47;;;10.30;99.90;;;;;;4977856;28;20481;-72
2024/03/11 10:40:18;;;;;;;15.50;7.87;;;10.30;99.90;;;;;;4969567;28;20472;-74
2024/03/11 10:42:54;;;;;;;15.37;9.40;;;10.30;99.90;;;;;;4979276;28;21009;-74
2024/03/11 10:45:35;;;;;;;10.70;7.47;;;10.40;99.90;;;;;;4975235;28;20500;-72
2024/03/11 10:48:01;;;;;;;11.20;8.10;;;10.50;99.90;;;;;;4979149;28;21116;-74
2024/03/11 10:50:28;;;;;;;10.07;7.50;;;10.50;99.90;;;;;;4960271;28;20539;-72
2024/03/11 10:52:58;;;;;;;11.20;6.50;;;10.60;99.90;;;;;;4964856;28;20465;-74
2024/03/11 10:55:32;;;;;;;10.63;7.60;;;10.70;99.90;;;;;;4972681;28;20493;-73
2024/03/11 10:58:01;;;;;;;10.93;6.90;;;10.70;99.90;;;;;;4977623;28;20469;-73
2024/03/11 11:00:34;;;;;;;9.63;6.97;;;10.80;99.90;;;;;;4980280;28;20485;-72
2024/03/11 11:03:12;;;;;;;13.97;7.67;;;10.90;99.90;;;;;;4977722;28;20479;-74
2024/03/11 11:05:52;;;;;;;12.73;8.83;;;10.90;99.90;;;;;;4976640;28;20472;-74
2024/03/11 11:08:22;;;;;;;14.50;7.13;;;11.00;99.90;;;;;;4972410;28;20480;-73
2024/03/11 11:10:49;;;;;;;8.53;6.00;;;11.00;99.90;;;;;;4959270;28;20469;-74
2024/03/11 11:13:17;;;;;;;10.97;7.50;;;11.10;99.90;;;;;;4974700;28;20472;-74
2024/03/11 11:15:45;;;;;;;8.27;6.93;;;11.20;99.90;;;;;;4976491;28;20560;-74
2024/03/11 11:18:15;;;;;;;8.73;5.57;;;11.20;99.90;;;;;;4969743;28;20596;-74
2024/03/11 11:20:46;;;;;;;10.20;6.20;;;11.40;99.90;;;;;;4979370;28;20468;-74
2024/03/11 11:23:11;;;;;;;8.23;5.80;;;11.60;99.90;;;;;;4972098;28;20476;-74
2024/03/11 11:25:44;;;;;;;7.00;5.50;;;11.70;99.90;;;;;;4976983;28;20556;-75
2024/03/11 11:28:15;;;;;;;8.50;5.67;;;11.90;99.90;;;;;;4991229;28;20229;-74
2024/03/11 11:30:48;;;;;;;7.30;4.93;;;12.00;99.90;;;;;;4979058;28;20978;-74
2024/03/11 11:33:56;;;;;;;5.30;4.23;;;12.10;99.90;;;;;;4977093;28;20477;-75
2024/03/11 11:36:36;;;;;;;5.50;4.70;;;12.10;99.90;;;;;;4980110;28;20648;-72
2024/03/11 11:39:32;;;;;;;7.50;4.40;;;12.00;99.90;;;;;;4980408;28;20476;-75
2024/03/11 11:41:57;;;;;;;7.10;5.17;;;12.00;99.90;;;;;;4980977;28;20477;-74
2024/03/11 11:44:26;;;;;;;6.23;4.47;;;12.10;99.90;;;;;;4997455;28;20492;-75
2024/03/11 11:46:54;;;;;;;5.63;4.20;;;12.20;99.90;;;;;;4964726;28;20469;-73
2024/03/11 11:49:21;;;;;;;5.27;4.17;;;12.20;99.90;;;;;;4978146;28;20515;-74
2024/03/11 11:51:51;;;;;;;7.27;4.13;;;12.20;99.90;;;;;;4980519;28;20861;-74
2024/03/11 11:54:22;;;;;;;6.33;4.73;;;12.30;99.90;;;;;;4975621;28;20517;-74
2024/03/11 11:56:48;;;;;;;6.17;4.30;;;12.40;99.90;;;;;;4982075;28;20524;-74
2024/03/11 11:59:19;;;;;;;4.50;3.57;;;12.30;99.90;;;;;;4973917;28;20918;-75
2024/03/11 12:01:50;;;;;;;5.00;4.30;;;12.40;99.90;;;;;;4980268;28;20962;-74
2024/03/11 12:04:15;;;;;;;5.60;4.50;;;12.40;99.90;;;;;;4974756;28;20472;-74
2024/03/11 12:06:42;;;;;;;5.20;4.17;;;12.50;99.90;;;;;;4979967;28;20453;-75
2024/03/11 12:09:15;;;;;;;3.70;3.30;;;12.40;99.90;;;;;;4977225;28;20713;-74
2024/03/11 12:11:49;;;;;;;4.50;4.10;;;12.40;99.90;;;;;;4978592;28;20460;-74
2024/03/11 12:14:15;;;;;;;6.10;4.20;;;12.50;99.90;;;;;;4981675;28;20469;-74
2024/03/11 12:16:42;;;;;;;5.00;3.90;;;12.40;99.90;;;;;;4980756;28;20830;-74
2024/03/11 12:19:10;;;;;;;3.70;3.30;;;12.60;99.90;;;;;;4962801;28;20905;-74
2024/03/11 12:21:41;;;;;;;4.90;3.83;;;12.70;99.90;;;;;;4980320;28;20488;-74
2024/03/11 12:24:12;;;;;;;7.80;4.53;;;12.90;99.90;;;;;;4960759;28;20485;-75
2024/03/11 12:26:38;;;;;;;5.47;4.50;;;13.10;99.90;;;;;;4961788;28;20838;-75
2024/03/11 12:29:05;;;;;;;5.47;4.23;;;13.10;99.90;;;;;;4980932;28;20453;-74
2024/03/11 12:31:35;;;;;;;6.53;4.30;;;13.20;99.90;;;;;;4981724;28;20472;-74
2024/03/11 12:34:06;;;;;;;5.10;3.97;;;13.30;99.90;;;;;;4981336;28;20466;-74
2024/03/11 12:36:33;;;;;;;5.47;4.40;;;13.50;99.90;;;;;;4981223;28;20460;-72
2024/03/11 12:39:00;;;;;;;4.13;3.53;;;13.60;99.90;;;;;;4974305;28;20476;-74
2024/03/11 12:41:38;;;;;;;6.00;4.40;;;13.40;99.90;;;;;;4977411;28;21042;-75
2024/03/11 12:44:12;;;;;;;5.83;4.13;;;13.40;99.90;;;;;;4972051;28;20471;-74
2024/03/11 12:46:40;;;;;;;5.00;3.30;;;13.30;99.90;;;;;;4979299;28;20464;-75
2024/03/11 12:49:08;;;;;;;13.67;11.43;;;13.40;99.90;;;;;;4977564;28;20465;-74
2024/03/11 12:51:35;;;;;;;8.63;7.60;;;13.40;99.90;;;;;;4980585;28;20488;-74
2024/03/11 12:54:30;;;;;;;7.27;5.90;;;13.40;99.90;;;;;;4982405;28;20473;-74